Time;durP1;ratioP1;P1;durP2;ratioP2;P2;SDS_P1;SDS_P2;PMS_P1;PMS_P2;Temp;Humidity;BMP_temperature;BMP_pressure;BME280_temperature;BME280_humidity;BME280_pressure;Samples;Min_cycle;Max_cycle;Signal;HPM_P1;HPM_P2
2022/10/21 00:00:38;;;;;;;2.37;1.33;;;;;;;13.33;43.48;95989.78;5105970;28;20436;-67
2022/10/21 00:03:05;;;;;;;2.17;1.67;;;;;;;13.30;43.50;95987.66;5101245;28;20882;-68
2022/10/21 00:05:32;;;;;;;0.53;0.53;;;;;;;13.02;44.18;95989.41;5108342;28;20527;-66
2022/10/21 00:07:59;;;;;;;0.27;0.27;;;;;;;13.28;43.76;95980.00;5096594;28;20432;-66
2022/10/21 00:10:26;;;;;;;0.53;0.53;;;;;;;13.23;43.87;95981.78;5104868;28;20831;-67
2022/10/21 00:12:53;;;;;;;2.00;1.83;;;;;;;13.08;43.90;95977.91;5103031;28;20441;-67
2022/10/21 00:15:19;;;;;;;0.30;0.30;;;;;;;13.12;44.08;95984.25;5104466;28;21112;-66
2022/10/21 00:17:46;;;;;;;0.23;0.23;;;;;;;13.16;43.70;95988.00;5109245;28;20444;-66
2022/10/21 00:20:13;;;;;;;3.57;2.37;;;;;;;13.03;43.94;95987.56;5105941;28;20941;-67
2022/10/21 00:22:40;;;;;;;0.57;0.57;;;;;;;13.06;44.05;95985.22;5101764;28;21001;-67
2022/10/21 00:25:08;;;;;;;0.30;0.30;;;;;;;12.87;44.76;95986.53;5097803;28;20441;-67
2022/10/21 00:27:35;;;;;;;5.10;2.67;;;;;;;12.83;44.05;95974.91;5108391;28;21005;-66
2022/10/21 00:30:05;;;;;;;1.50;0.93;;;;;;;12.86;44.57;95976.28;5096016;28;20447;-66
2022/10/21 00:32:33;;;;;;;0.40;0.40;;;;;;;13.04;44.32;95981.28;5095154;28;20445;-67
2022/10/21 00:34:59;;;;;;;0.50;0.50;;;;;;;13.04;44.11;95984.72;5104849;28;20475;-66
2022/10/21 00:37:29;;;;;;;0.93;0.80;;;;;;;13.04;43.91;95979.44;5098190;28;20536;-66
2022/10/21 00:39:57;;;;;;;0.63;0.63;;;;;;;13.03;44.16;95975.22;5107081;28;20501;-67
2022/10/21 00:42:31;;;;;;;0.30;0.30;;;;;;;13.02;44.32;95976.25;5101799;28;20444;-65
2022/10/21 00:45:04;;;;;;;1.90;1.67;;;;;;;12.89;44.53;95979.22;5091451;28;20442;-67
2022/10/21 00:47:37;;;;;;;0.47;0.47;;;;;;;12.87;44.35;95981.28;5107082;28;20866;-68
2022/10/21 00:50:11;;;;;;;6.07;1.27;;;;;;;13.01;44.07;95966.72;5104079;28;20432;-67
2022/10/21 00:52:38;;;;;;;0.30;0.30;;;;;;;13.01;44.20;95966.72;5095522;28;20911;-66
2022/10/21 00:55:06;;;;;;;24.27;1.07;;;;;;;13.10;43.95;95970.56;5101584;28;20532;-66
2022/10/21 00:57:34;;;;;;;0.50;0.50;;;;;;;12.97;44.46;95960.34;5097653;28;20449;-67
2022/10/21 01:00:04;;;;;;;1.03;0.90;;;;;;;12.93;44.51;95959.28;5100415;27;20963;-67
2022/10/21 01:02:31;;;;;;;3.07;1.27;;;;;;;13.02;44.39;95964.91;5094265;28;21143;-66
2022/10/21 01:05:01;;;;;;;0.10;0.10;;;;;;;13.01;44.19;95950.94;5100553;28;20445;-67
2022/10/21 01:07:28;;;;;;;1.07;0.30;;;;;;;12.85;44.58;95958.88;5101000;28;20470;-65
2022/10/21 01:09:55;;;;;;;2.60;1.07;;;;;;;12.92;44.22;95957.66;5098998;28;20441;-64
2022/10/21 01:12:32;;;;;;;2.30;1.73;;;;;;;13.01;44.53;95961.47;5099027;28;20464;-66
2022/10/21 01:15:04;;;;;;;3.30;1.70;;;;;;;12.97;44.52;95957.72;5102264;28;20835;-65
2022/10/21 01:17:54;;;;;;;0.10;0.10;;;;;;;12.89;44.41;95960.78;5096123;28;20453;-67
2022/10/21 01:20:49;;;;;;;0.73;0.63;;;;;;;12.84;44.96;95958.09;5107117;27;20875;-66
2022/10/21 01:23:48;;;;;;;5.20;1.83;;;;;;;12.39;45.79;95961.94;5099318;28;20500;-66
2022/10/21 01:26:40;;;;;;;0.00;0.00;;;;;;;12.57;45.69;95959.81;5110320;27;20697;-65
2022/10/21 01:29:18;;;;;;;0.40;0.40;;;;;;;12.54;45.45;95959.50;5101036;28;20457;-65
2022/10/21 01:31:48;;;;;;;0.13;0.13;;;;;;;12.65;45.58;95969.13;5100882;27;20445;-67
2022/10/21 01:34:15;;;;;;;0.73;0.53;;;;;;;12.43;45.35;95969.06;5105695;28;20511;-67
2022/10/21 01:36:58;;;;;;;0.43;0.43;;;;;;;12.62;44.92;95972.25;5102803;28;20496;-65
2022/10/21 01:39:36;;;;;;;0.23;0.23;;;;;;;12.77;44.75;95970.59;5106352;28;20802;-65
2022/10/21 01:42:36;;;;;;;3.70;2.57;;;;;;;12.72;45.02;95972.38;5096290;28;20444;-65
2022/10/21 01:45:26;;;;;;;0.23;0.23;;;;;;;12.55;44.90;95977.69;5099535;27;20540;-68
2022/10/21 01:47:57;;;;;;;0.00;0.00;;;;;;;12.78;44.87;95977.47;5098581;28;20453;-68
2022/10/21 01:50:27;;;;;;;0.47;0.47;;;;;;;12.75;44.99;95977.97;5100494;28;20967;-65
2022/10/21 01:52:59;;;;;;;0.70;0.70;;;;;;;12.51;45.51;95981.81;5091323;28;20505;-65
2022/10/21 01:55:30;;;;;;;0.17;0.17;;;;;;;12.50;45.79;95980.22;5102437;28;20479;-65
2022/10/21 01:58:06;;;;;;;0.63;0.63;;;;;;;12.39;45.66;95982.97;5103557;28;20531;-68
2022/10/21 02:00:35;;;;;;;0.10;0.10;;;;;;;12.34;45.57;95970.53;5109353;28;20436;-67
2022/10/21 02:03:07;;;;;;;1.23;1.10;;;;;;;12.41;45.72;95978.25;5099832;28;20467;-64
2022/10/21 02:05:34;;;;;;;0.70;0.70;;;;;;;12.37;45.84;95975.28;5096841;28;20477;-66
2022/10/21 02:08:02;;;;;;;0.50;0.50;;;;;;;12.25;45.62;95966.69;5097457;28;20456;-65
2022/10/21 02:10:35;;;;;;;0.27;0.27;;;;;;;12.45;45.42;95988.03;5105180;28;20527;-67
2022/10/21 02:13:04;;;;;;;0.20;0.20;;;;;;;12.46;45.34;95988.84;5098129;28;20448;-66
2022/10/21 02:15:33;;;;;;;0.20;0.20;;;;;;;12.38;45.54;95976.88;5106287;27;21089;-64
2022/10/21 02:18:06;;;;;;;0.53;0.53;;;;;;;12.45;45.00;95981.97;5109876;28;20446;-67
2022/10/21 02:20:41;;;;;;;0.00;0.00;;;;;;;12.27;45.34;95988.28;5110804;28;20473;-68
2022/10/21 02:23:11;;;;;;;0.43;0.43;;;;;;;12.18;45.42;95974.75;5091093;28;20519;-66
2022/10/21 02:25:41;;;;;;;0.93;0.83;;;;;;;12.28;45.29;95991.72;5094813;27;20509;-66
2022/10/21 02:28:10;;;;;;;0.20;0.20;;;;;;;12.12;45.47;95983.59;5098435;28;20493;-65
2022/10/21 02:30:54;;;;;;;0.73;0.70;;;;;;;12.18;45.56;95992.34;5103806;27;20448;-67
2022/10/21 02:33:57;;;;;;;23.23;1.63;;;;;;;12.16;45.58;95994.41;5102827;28;20440;-65
2022/10/21 02:36:41;;;;;;;1.37;1.30;;;;;;;12.13;45.92;95989.63;5096635;27;20486;-68
2022/10/21 02:39:23;;;;;;;0.40;0.40;;;;;;;12.15;45.86;95992.81;5099356;28;20437;-65
2022/10/21 02:41:54;;;;;;;0.50;0.50;;;;;;;12.03;46.04;95992.09;5096006;28;20808;-66
2022/10/21 02:44:21;;;;;;;3.90;1.03;;;;;;;12.04;46.05;95980.56;5092221;28;20452;-67
2022/10/21 02:46:49;;;;;;;0.80;0.80;;;;;;;12.17;45.36;95990.75;5102577;27;20861;-66
2022/10/21 02:49:15;;;;;;;0.30;0.30;;;;;;;12.02;45.61;95995.75;5095826;28;21697;-68
2022/10/21 02:51:44;;;;;;;6.57;0.97;;;;;;;12.12;45.85;95998.53;5101707;27;20448;-65
2022/10/21 02:54:11;;;;;;;2.43;1.00;;;;;;;12.01;45.83;95996.78;5105299;28;20810;-66
2022/10/21 02:56:38;;;;;;;1.90;0.93;;;;;;;12.01;45.61;96002.03;5102829;27;20526;-67
2022/10/21 02:59:05;;;;;;;0.97;0.97;;;;;;;11.68;46.54;95992.25;5106887;28;20441;-66
2022/10/21 03:01:32;;;;;;;0.60;0.60;;;;;;;11.77;46.13;96005.81;5100782;28;20513;-68
2022/10/21 03:03:59;;;;;;;0.30;0.30;;;;;;;11.80;46.02;96000.91;5100072;28;20535;-66
2022/10/21 03:06:25;;;;;;;1.80;1.70;;;;;;;11.69;46.12;95998.31;5109780;27;20531;-65
2022/10/21 03:08:52;;;;;;;0.73;0.50;;;;;;;11.77;46.54;96006.59;5094322;28;20979;-68
2022/10/21 03:11:19;;;;;;;0.50;0.50;;;;;;;11.84;45.84;96011.72;5110540;28;20531;-65
2022/10/21 03:13:46;;;;;;;2.27;2.00;;;;;;;11.80;46.11;96007.97;5110514;28;20845;-66
2022/10/21 03:16:13;;;;;;;0.30;0.30;;;;;;;11.96;45.35;96007.19;5110203;28;20490;-66
2022/10/21 03:18:40;;;;;;;1.30;1.20;;;;;;;11.85;46.02;96013.31;5098995;28;20441;-65
2022/10/21 03:21:07;;;;;;;0.80;0.73;;;;;;;11.31;46.94;96014.63;5095498;27;20460;-67
2022/10/21 03:23:33;;;;;;;4.37;0.77;;;;;;;11.73;46.54;96005.47;5101955;28;20538;-65
2022/10/21 03:26:00;;;;;;;1.43;1.33;;;;;;;11.69;46.30;96014.06;5109654;27;20454;-67
2022/10/21 03:28:29;;;;;;;0.20;0.20;;;;;;;11.63;46.21;96009.72;5100875;28;20497;-66
2022/10/21 03:30:56;;;;;;;1.10;1.10;;;;;;;11.60;46.45;96012.81;5097158;28;20444;-67
2022/10/21 03:33:23;;;;;;;3.10;0.97;;;;;;;11.67;46.20;96010.88;5090063;28;20443;-66
2022/10/21 03:35:49;;;;;;;0.37;0.37;;;;;;;11.54;46.29;96013.75;5102560;27;21021;-67
2022/10/21 03:38:16;;;;;;;0.83;0.70;;;;;;;11.64;46.27;96011.31;5096084;27;20447;-64
2022/10/21 03:40:43;;;;;;;3.53;2.03;;;;;;;11.58;46.28;96018.31;5100446;28;20496;-68
2022/10/21 03:43:10;;;;;;;0.70;0.70;;;;;;;11.43;46.34;96025.88;5115073;27;20947;-67
2022/10/21 03:45:36;;;;;;;1.00;0.90;;;;;;;11.41;46.16;96016.63;5104060;28;20468;-66
2022/10/21 03:48:03;;;;;;;2.87;2.10;;;;;;;11.21;46.69;96023.09;5109133;28;20519;-68
2022/10/21 03:50:30;;;;;;;0.43;0.43;;;;;;;11.16;46.89;96025.63;5096739;28;20461;-65
2022/10/21 03:52:58;;;;;;;0.60;0.60;;;;;;;11.47;46.23;96020.97;5094766;28;20450;-67
2022/10/21 03:55:26;;;;;;;2.27;1.40;;;;;;;11.30;46.35;96022.72;5091271;28;20567;-65
2022/10/21 03:57:53;;;;;;;0.47;0.47;;;;;;;10.96;47.26;96019.94;5109254;27;20513;-67
2022/10/21 04:00:20;;;;;;;0.40;0.40;;;;;;;11.06;47.13;96019.34;5106772;28;20449;-66
2022/10/21 04:02:47;;;;;;;0.50;0.50;;;;;;;10.52;48.95;96028.38;5098620;28;20535;-66
2022/10/21 04:05:14;;;;;;;1.53;1.43;;;;;;;10.58;48.92;96022.25;5094689;28;20449;-66
2022/10/21 04:07:41;;;;;;;7.87;1.33;;;;;;;10.93;48.10;96025.63;5097433;28;20953;-67
2022/10/21 04:10:08;;;;;;;4.13;1.97;;;;;;;10.10;49.73;96032.06;5098394;28;20528;-67
2022/10/21 04:12:36;;;;;;;0.30;0.30;;;;;;;10.39;49.58;96022.56;5109526;28;20436;-64
2022/10/21 04:15:04;;;;;;;0.50;0.50;;;;;;;10.71;48.52;96032.47;5107630;28;21033;-68
2022/10/21 04:17:32;;;;;;;0.53;0.53;;;;;;;10.66;48.48;96024.50;5113162;27;20443;-64
2022/10/21 04:19:58;;;;;;;0.30;0.30;;;;;;;10.75;47.86;96023.13;5091950;28;20441;-66
2022/10/21 04:22:26;;;;;;;0.53;0.53;;;;;;;11.04;47.24;96005.66;5098221;28;20468;-65
2022/10/21 04:24:52;;;;;;;0.40;0.40;;;;;;;11.02;46.90;95998.03;5109023;28;20483;-66
2022/10/21 04:27:19;;;;;;;0.83;0.83;;;;;;;11.22;46.45;96010.78;5100067;27;20502;-69
2022/10/21 04:29:46;;;;;;;1.07;1.07;;;;;;;11.09;47.22;96017.06;5103141;28;20447;-68
2022/10/21 04:32:13;;;;;;;0.60;0.60;;;;;;;11.11;46.86;96017.63;5090940;28;20528;-65
2022/10/21 04:34:39;;;;;;;0.70;0.70;;;;;;;11.00;47.64;96013.19;5089132;28;20464;-66
2022/10/21 04:37:06;;;;;;;1.53;0.87;;;;;;;11.15;47.33;96021.38;5094577;28;21300;-65
2022/10/21 04:39:34;;;;;;;0.33;0.33;;;;;;;11.20;47.01;96018.84;5098923;28;20440;-67
2022/10/21 04:42:01;;;;;;;2.83;1.63;;;;;;;11.13;47.09;96004.31;5113755;27;20443;-72
2022/10/21 04:44:28;;;;;;;5.60;5.10;;;;;;;11.50;47.04;96023.09;5109515;27;20436;-63
2022/10/21 04:46:55;;;;;;;2.43;1.97;;;;;;;11.48;46.88;96022.56;5108325;27;20226;-70
2022/10/21 04:49:21;;;;;;;0.50;0.50;;;;;;;11.29;47.09;96021.13;5104679;28;20437;-69
2022/10/21 04:51:48;;;;;;;0.30;0.30;;;;;;;11.16;47.34;96020.38;5092192;28;20509;-68
2022/10/21 04:54:15;;;;;;;1.03;0.50;;;;;;;11.15;48.03;96023.19;5094556;28;20531;-68
2022/10/21 04:56:42;;;;;;;0.10;0.10;;;;;;;11.06;47.33;96007.03;5097008;28;20478;-68
2022/10/21 04:59:09;;;;;;;11.63;7.63;;;;;;;11.31;48.71;96017.25;5101902;28;20476;-65
2022/10/21 05:01:36;;;;;;;7.10;5.23;;;;;;;11.48;47.75;96020.72;5105755;28;20448;-66
2022/10/21 05:04:03;;;;;;;1.80;1.70;;;;;;;10.61;49.13;96011.28;5093292;28;20535;-66
2022/10/21 05:06:30;;;;;;;3.80;2.77;;;;;;;10.65;49.66;96017.69;5095314;28;20513;-67
2022/10/21 05:08:57;;;;;;;3.50;1.60;;;;;;;10.61;50.28;96032.25;5108440;28;20440;-68
2022/10/21 05:11:24;;;;;;;0.63;0.63;;;;;;;10.82;50.13;96023.03;5097360;28;20449;-66
2022/10/21 05:13:52;;;;;;;1.10;0.70;;;;;;;11.29;49.32;96023.75;5108279;28;20718;-68
2022/10/21 05:16:18;;;;;;;2.10;1.90;;;;;;;11.47;47.68;96031.47;5108264;28;20582;-65
2022/10/21 05:18:45;;;;;;;0.47;0.47;;;;;;;11.55;47.36;96029.25;5106590;28;20439;-66
2022/10/21 05:21:12;;;;;;;0.28;0.28;;;;;;;11.40;47.93;96025.56;5096224;28;20467;-68
2022/10/21 05:23:39;;;;;;;0.47;0.40;;;;;;;11.58;47.32;96028.81;5093869;28;20256;-69
2022/10/21 05:26:06;;;;;;;1.63;1.33;;;;;;;11.50;47.76;96037.03;5088893;28;20459;-68
2022/10/21 05:28:33;;;;;;;9.90;8.13;;;;;;;11.81;47.54;96033.19;5099224;28;20477;-63
2022/10/21 05:31:00;;;;;;;8.10;4.27;;;;;;;11.94;47.25;96035.53;5095132;28;20815;-65
2022/10/21 05:33:27;;;;;;;2.43;2.23;;;;;;;11.93;47.24;96031.31;5107082;28;20444;-66
2022/10/21 05:36:00;;;;;;;2.27;1.77;;;;;;;11.95;47.10;96034.50;5112970;28;20515;-67
2022/10/21 05:38:28;;;;;;;0.33;0.33;;;;;;;10.99;50.22;96040.47;5101341;28;20444;-72
2022/10/21 05:40:55;;;;;;;3.90;2.20;;;;;;;11.58;48.47;96049.81;5088220;28;20483;-71
2022/10/21 05:43:22;;;;;;;0.40;0.40;;;;;;;11.91;47.50;96049.16;5092086;28;20850;-72
2022/10/21 05:45:49;;;;;;;0.20;0.20;;;;;;;11.65;48.71;96039.19;5100289;28;20469;-72
2022/10/21 05:48:17;;;;;;;0.50;0.50;;;;;;;11.93;47.93;96041.84;5100021;28;20496;-70
2022/10/21 05:50:45;;;;;;;3.67;2.43;;;;;;;12.26;47.13;96047.16;5103073;28;20445;-69
2022/10/21 05:53:13;;;;;;;0.13;0.13;;;;;;;12.36;47.16;96051.75;5089407;28;20473;-74
2022/10/21 05:55:39;;;;;;;1.27;1.17;;;;;;;11.53;49.58;96049.69;5094892;28;20986;-69
2022/10/21 05:58:06;;;;;;;2.90;1.70;;;;;;;11.90;48.70;96045.72;5102175;27;20845;-70
2022/10/21 06:00:34;;;;;;;0.73;0.63;;;;;;;11.76;48.95;96036.53;5093539;28;20464;-71
2022/10/21 06:03:01;;;;;;;0.60;0.60;;;;;;;12.23;47.85;96060.75;5111620;27;20437;-68
2022/10/21 06:05:27;;;;;;;1.03;1.03;;;;;;;12.16;48.28;96062.72;5111035;28;20441;-71
2022/10/21 06:07:55;;;;;;;1.27;1.17;;;;;;;11.76;51.17;96067.25;5101162;28;20472;-69
2022/10/21 06:10:22;;;;;;;1.60;1.50;;;;;;;12.04;50.15;96062.78;5111748;28;20943;-69
2022/10/21 06:12:54;;;;;;;4.37;2.87;;;;;;;12.12;49.74;96078.16;5111567;27;20450;-69
2022/10/21 06:15:21;;;;;;;3.40;2.10;;;;;;;12.34;48.28;96080.91;5111276;28;20472;-68
2022/10/21 06:17:50;;;;;;;2.10;1.90;;;;;;;12.16;48.06;96073.22;5101075;27;20436;-71
2022/10/21 06:20:16;;;;;;;3.93;1.50;;;;;;;12.50;47.33;96080.13;5106833;28;20628;-70
2022/10/21 06:22:43;;;;;;;3.67;2.40;;;;;;;11.70;48.75;96079.47;5105339;28;20436;-71
2022/10/21 06:25:10;;;;;;;1.63;1.53;;;;;;;11.98;48.79;96081.31;5099998;28;20471;-72
2022/10/21 06:27:37;;;;;;;2.23;1.87;;;;;;;12.04;48.48;96075.13;5111276;28;20425;-74
2022/10/21 06:30:05;;;;;;;1.07;0.70;;;;;;;11.72;49.58;96076.59;5103900;28;21060;-70
2022/10/21 06:32:32;;;;;;;1.40;1.33;;;;;;;11.62;49.94;96090.31;5097358;27;20441;-72
2022/10/21 06:34:58;;;;;;;1.97;1.77;;;;;;;12.48;47.72;96090.06;5105734;28;20846;-74
2022/10/21 06:37:25;;;;;;;1.50;1.40;;;;;;;12.38;48.21;96097.00;5094588;27;20486;-72
2022/10/21 06:39:52;;;;;;;1.87;1.73;;;;;;;12.48;48.61;96103.22;5107584;28;20473;-72
2022/10/21 06:42:19;;;;;;;1.40;1.30;;;;;;;12.74;47.49;96101.81;5092685;28;20436;-72
2022/10/21 06:44:46;;;;;;;3.73;2.27;;;;;;;11.85;49.89;96098.16;5109803;28;20432;-67
2022/10/21 06:47:13;;;;;;;0.60;0.60;;;;;;;11.95;50.39;96102.81;5110473;27;21051;-68
2022/10/21 06:49:40;;;;;;;0.43;0.43;;;;;;;11.91;50.58;96096.44;5096614;28;20438;-70
2022/10/21 06:52:07;;;;;;;0.40;0.40;;;;;;;12.20;50.31;96106.69;5094461;28;20473;-73
2022/10/21 06:54:34;;;;;;;0.40;0.40;;;;;;;12.12;51.20;96103.63;5110757;28;20441;-70
2022/10/21 06:57:00;;;;;;;0.10;0.10;;;;;;;13.03;48.70;96095.44;5110264;28;20986;-72
2022/10/21 06:59:27;;;;;;;0.93;0.70;;;;;;;12.82;48.98;96104.84;5111212;28;20487;-70
2022/10/21 07:01:54;;;;;;;0.73;0.73;;;;;;;13.24;47.11;96097.34;5097536;28;20452;-69
2022/10/21 07:04:26;;;;;;;0.63;0.63;;;;;;;12.96;48.84;96105.31;5110031;27;20492;-72
2022/10/21 07:06:52;;;;;;;3.40;0.70;;;;;;;12.81;48.93;96097.97;5097744;28;20477;-71
2022/10/21 07:09:19;;;;;;;0.80;0.80;;;;;;;13.23;48.81;96095.72;5103974;28;20526;-72
2022/10/21 07:11:46;;;;;;;2.03;0.63;;;;;;;13.05;48.79;96091.53;5089771;28;20441;-68
2022/10/21 07:14:13;;;;;;;2.30;2.00;;;;;;;13.53;47.49;96096.16;5104740;28;20443;-68
2022/10/21 07:16:40;;;;;;;0.20;0.20;;;;;;;13.35;49.15;96098.28;5099296;28;20491;-72
2022/10/21 07:19:08;;;;;;;0.97;0.83;;;;;;;13.90;47.63;96096.34;5095747;27;20905;-72
2022/10/21 07:21:35;;;;;;;2.20;1.93;;;;;;;13.97;47.11;96087.19;5102689;28;20536;-70
2022/10/21 07:24:02;;;;;;;0.47;0.47;;;;;;;13.23;49.15;96096.53;5091461;28;20528;-70
2022/10/21 07:26:32;;;;;;;0.37;0.37;;;;;;;13.31;48.58;96076.09;5103749;28;20448;-72
2022/10/21 07:28:59;;;;;;;0.20;0.20;;;;;;;14.05;47.23;96093.88;5104290;27;20494;-70
2022/10/21 07:31:30;;;;;;;0.80;0.80;;;;;;;13.76;48.39;96097.72;5105201;28;20441;-70
2022/10/21 07:33:59;;;;;;;0.97;0.40;;;;;;;14.09;48.29;96100.22;5092249;28;20539;-69
2022/10/21 07:36:28;;;;;;;1.27;1.00;;;;;;;14.44;46.93;96090.06;5089189;28;20484;-72
2022/10/21 07:39:01;;;;;;;0.50;0.50;;;;;;;14.38;46.65;96088.41;5092330;27;20520;-71
2022/10/21 07:41:31;;;;;;;3.83;2.30;;;;;;;14.77;46.13;96087.19;5089400;28;20449;-71
2022/10/21 07:43:59;;;;;;;0.13;0.13;;;;;;;14.67;46.14;96081.03;5108872;28;20516;-71
2022/10/21 07:46:26;;;;;;;0.40;0.40;;;;;;;15.31;44.71;96076.47;5098153;28;20480;-71
2022/10/21 07:48:53;;;;;;;0.20;0.20;;;;;;;14.34;46.69;96082.06;5102459;28;20472;-70
2022/10/21 07:51:22;;;;;;;2.83;1.87;;;;;;;13.97;48.15;96091.66;5089159;28;20449;-70
2022/10/21 07:53:57;;;;;;;0.77;0.77;;;;;;;13.91;48.56;96082.09;5101779;27;20844;-69
2022/10/21 07:56:28;;;;;;;1.20;1.00;;;;;;;14.23;47.27;96089.03;5109842;28;20484;-72
2022/10/21 07:58:55;;;;;;;2.43;1.53;;;;;;;14.74;46.31;96082.41;5104815;28;20452;-69
2022/10/21 08:01:23;;;;;;;0.10;0.10;;;;;;;15.39;45.73;96074.13;5100719;28;20445;-73
2022/10/21 08:03:52;;;;;;;0.33;0.33;;;;;;;16.11;43.70;96082.09;5102580;28;21013;-73
2022/10/21 08:06:20;;;;;;;0.33;0.33;;;;;;;15.46;45.18;96073.91;5089199;28;20441;-71
2022/10/21 08:08:46;;;;;;;1.20;1.13;;;;;;;16.47;43.60;96069.72;5102791;28;20440;-71
2022/10/21 08:11:25;;;;;;;0.83;0.83;;;;;;;17.24;41.75;96070.25;5095189;28;20444;-69
2022/10/21 08:13:53;;;;;;;1.63;1.53;;;;;;;17.07;41.77;96059.16;5109714;28;20452;-68
2022/10/21 08:16:20;;;;;;;0.40;0.40;;;;;;;16.52;42.83;96073.19;5089057;28;20473;-73
2022/10/21 08:18:47;;;;;;;3.33;1.10;;;;;;;16.62;43.20;96069.78;5100718;28;20471;-69
2022/10/21 08:21:14;;;;;;;0.57;0.57;;;;;;;17.48;41.88;96065.19;5093366;28;20535;-72
2022/10/21 08:23:41;;;;;;;0.87;0.87;;;;;;;17.93;40.93;96049.09;5109164;27;20523;-72
2022/10/21 08:26:13;;;;;;;1.50;1.40;;;;;;;16.48;44.19;96048.31;5109407;27;20468;-72
2022/10/21 08:28:40;;;;;;;1.20;1.10;;;;;;;16.44;43.79;96055.16;5108067;28;20448;-73
2022/10/21 08:31:11;;;;;;;1.23;1.13;;;;;;;16.15;45.00;96056.69;5111113;28;20626;-67
2022/10/21 08:33:38;;;;;;;1.50;1.40;;;;;;;17.39;42.19;96050.88;5118955;28;20452;-70
2022/10/21 08:36:13;;;;;;;4.97;0.97;;;;;;;16.82;42.76;96061.84;5101308;28;20522;-71
2022/10/21 08:38:40;;;;;;;1.00;1.00;;;;;;;17.32;41.94;96059.09;5108914;28;21010;-71
2022/10/21 08:41:30;;;;;;;1.33;0.93;;;;;;;17.17;42.21;96059.91;5103601;28;20433;-67
2022/10/21 08:44:12;;;;;;;0.60;0.60;;;;;;;17.79;41.41;96042.81;5093128;28;20537;-70
2022/10/21 08:46:50;;;;;;;0.67;0.67;;;;;;;17.13;42.21;96048.25;5108382;28;20464;-71
2022/10/21 08:49:24;;;;;;;0.50;0.50;;;;;;;17.61;41.28;96032.81;5104613;28;20481;-69
2022/10/21 08:52:02;;;;;;;0.60;0.57;;;;;;;18.40;39.94;96014.81;5089303;28;20440;-71
2022/10/21 08:54:41;;;;;;;1.67;1.40;;;;;;;18.11;40.36;96033.34;5100580;28;20452;-70
2022/10/21 08:57:10;;;;;;;0.40;0.40;;;;;;;17.46;40.82;96046.06;5104368;28;20486;-72
2022/10/21 08:59:40;;;;;;;0.20;0.20;;;;;;;18.17;40.38;96021.59;5100301;28;20445;-70
2022/10/21 09:02:10;;;;;;;0.50;0.50;;;;;;;18.78;38.64;96021.97;5102541;28;20452;-72
2022/10/21 09:05:01;;;;;;;1.23;1.17;;;;;;;17.49;41.42;96024.34;5102581;28;20903;-72
2022/10/21 09:07:42;;;;;;;0.37;0.37;;;;;;;17.94;40.68;96032.09;5105569;28;20472;-68
2022/10/21 09:10:27;;;;;;;0.40;0.40;;;;;;;18.15;39.27;96018.47;5107053;28;20440;-73
2022/10/21 09:13:10;;;;;;;1.53;1.43;;;;;;;18.86;38.37;96012.63;5108392;28;20440;-72
2022/10/21 09:15:59;;;;;;;1.27;1.10;;;;;;;18.27;38.51;96004.84;5093765;28;20935;-69
2022/10/21 09:18:40;;;;;;;1.37;1.27;;;;;;;18.25;39.26;96004.31;5102614;28;20436;-72
2022/10/21 09:21:44;;;;;;;0.40;0.40;;;;;;;18.10;38.47;95999.13;5108653;28;20445;-71
2022/10/21 09:24:18;;;;;;;1.03;0.87;;;;;;;18.54;38.37;96001.75;5108272;28;20546;-70
2022/10/21 09:26:49;;;;;;;0.57;0.57;;;;;;;18.84;38.01;95989.00;5109056;28;20482;-72
2022/10/21 09:29:25;;;;;;;0.43;0.43;;;;;;;19.13;37.98;95989.75;5109170;28;20515;-71
2022/10/21 09:31:58;;;;;;;0.80;0.53;;;;;;;18.83;38.30;95992.72;5103687;28;20433;-72
2022/10/21 09:34:33;;;;;;;0.57;0.57;;;;;;;19.43;37.77;95985.22;5107454;27;20493;-70
2022/10/21 09:37:05;;;;;;;0.33;0.33;;;;;;;19.54;36.05;95986.66;5102637;28;20564;-70
2022/10/21 09:40:18;;;;;;;0.93;0.93;;;;;;;19.85;36.88;95971.91;5102204;28;20444;-70
2022/10/21 09:42:49;;;;;;;1.07;0.87;;;;;;;19.65;37.03;95978.25;5089253;28;20452;-69
2022/10/21 09:45:25;;;;;;;2.40;1.23;;;;;;;20.05;36.33;95974.28;5109503;28;20440;-69
2022/10/21 09:47:58;;;;;;;1.07;1.03;;;;;;;20.22;36.50;95981.78;5093076;28;20846;-71
2022/10/21 09:50:26;;;;;;;1.17;1.07;;;;;;;20.74;34.72;95966.28;5098711;28;20808;-74
2022/10/21 09:53:12;;;;;;;2.30;1.97;;;;;;;20.02;36.25;95980.16;5108199;28;20438;-71
2022/10/21 09:55:42;;;;;;;1.03;1.03;;;;;;;19.83;36.04;95977.50;5098432;27;20440;-72
2022/10/21 09:58:23;;;;;;;3.83;1.50;;;;;;;19.93;37.29;95979.22;5101318;28;21078;-72
2022/10/21 10:00:51;;;;;;;1.10;1.03;;;;;;;20.07;36.29;95986.19;5110822;28;20945;-70
2022/10/21 10:03:40;;;;;;;1.87;1.77;;;;;;;20.82;35.03;95975.47;5111928;28;20525;-72
2022/10/21 10:06:07;;;;;;;1.30;1.20;;;;;;;19.92;35.75;95967.81;5091341;28;20445;-71
2022/10/21 10:08:46;;;;;;;2.67;1.57;;;;;;;19.63;36.05;95976.97;5103481;27;20432;-72
2022/10/21 10:11:16;;;;;;;0.20;0.20;;;;;;;20.13;36.06;95968.28;5105114;28;20445;-75
2022/10/21 10:13:49;;;;;;;0.40;0.40;;;;;;;20.54;35.40;95963.94;5103594;28;20476;-69
2022/10/21 10:16:29;;;;;;;1.17;1.07;;;;;;;20.84;34.67;95960.75;5106244;28;20479;-73
2022/10/21 10:19:17;;;;;;;0.47;0.47;;;;;;;19.75;37.03;95950.75;5104903;28;20436;-70
2022/10/21 10:21:46;;;;;;;0.60;0.60;;;;;;;20.37;35.57;95955.69;5099563;28;20782;-72
2022/10/21 10:24:19;;;;;;;0.60;0.60;;;;;;;20.71;35.29;95955.41;5102668;27;20432;-72
2022/10/21 10:26:47;;;;;;;0.73;0.73;;;;;;;20.01;35.63;95944.81;5111628;28;20456;-73
2022/10/21 10:29:14;;;;;;;0.30;0.30;;;;;;;20.05;35.55;95945.00;5103064;28;20464;-73
2022/10/21 10:31:46;;;;;;;0.30;0.30;;;;;;;20.16;35.57;95946.44;5110721;28;20476;-72
2022/10/21 10:34:51;;;;;;;1.33;1.23;;;;;;;20.68;35.38;95940.78;5111781;28;20497;-76
2022/10/21 10:37:25;;;;;;;1.40;1.27;;;;;;;20.30;35.67;95941.97;5083386;28;20480;-72
2022/10/21 10:39:56;;;;;;;0.77;0.77;;;;;;;20.45;34.80;95923.09;5108283;28;20436;-70
2022/10/21 10:42:32;;;;;;;0.73;0.73;;;;;;;20.73;34.91;95930.03;5096302;28;20429;-73
2022/10/21 10:45:12;;;;;;;3.40;1.53;;;;;;;20.44;35.29;95937.47;5111525;28;20798;-73
2022/10/21 10:47:47;;;;;;;0.97;0.60;;;;;;;20.55;34.71;95914.91;5107469;28;20444;-71
2022/10/21 10:50:39;;;;;;;1.40;1.30;;;;;;;21.23;33.89;95909.69;5103347;27;20463;-70
2022/10/21 10:53:20;;;;;;;2.20;1.20;;;;;;;21.33;33.98;95898.78;5101451;28;20435;-73
2022/10/21 10:55:56;;;;;;;0.90;0.80;;;;;;;21.58;33.64;95892.16;5105716;27;20429;-73
2022/10/21 10:58:25;;;;;;;1.33;0.80;;;;;;;21.01;32.89;95898.91;5102484;28;20558;-69
2022/10/21 11:00:58;;;;;;;1.57;1.30;;;;;;;20.85;34.26;95906.41;5110457;27;20787;-71
2022/10/21 11:03:33;;;;;;;0.53;0.30;;;;;;;21.02;34.00;95889.84;5098709;28;20459;-71
2022/10/21 11:06:16;;;;;;;0.70;0.70;;;;;;;20.74;34.37;95894.34;5118719;27;20498;-72
2022/10/21 11:08:49;;;;;;;0.27;0.27;;;;;;;21.23;32.67;95874.22;5090170;28;20439;-73
2022/10/21 11:11:37;;;;;;;1.23;1.13;;;;;;;21.79;32.72;95887.94;5096578;28;20445;-74
2022/10/21 11:14:13;;;;;;;0.40;0.40;;;;;;;21.54;32.02;95880.50;5097466;27;20441;-71
2022/10/21 11:17:05;;;;;;;0.37;0.37;;;;;;;21.51;32.85;95870.44;5109989;28;20962;-70
2022/10/21 11:19:53;;;;;;;2.83;1.00;;;;;;;20.76;34.70;95878.06;5092817;27;20948;-73
2022/10/21 11:22:51;;;;;;;0.50;0.50;;;;;;;20.54;33.73;95883.25;5103666;28;20436;-71
2022/10/21 11:25:32;;;;;;;0.40;0.40;;;;;;;21.59;32.71;95856.38;5110177;27;20961;-72
2022/10/21 11:28:16;;;;;;;0.70;0.70;;;;;;;20.89;34.44;95858.63;5105992;28;20536;-74
2022/10/21 11:31:07;;;;;;;2.67;1.27;;;;;;;21.41;33.22;95849.31;5093918;27;20514;-72
2022/10/21 11:33:53;;;;;;;3.73;1.53;;;;;;;21.32;33.55;95845.78;5103647;28;20440;-72
2022/10/21 11:36:20;;;;;;;1.60;1.33;;;;;;;20.79;34.12;95848.97;5111563;28;20447;-74
2022/10/21 11:39:02;;;;;;;0.80;0.70;;;;;;;21.81;32.92;95845.75;5098809;28;20530;-72
2022/10/21 11:41:29;;;;;;;2.30;0.77;;;;;;;22.46;32.07;95844.16;5092421;28;20938;-73
2022/10/21 11:44:18;;;;;;;0.63;0.63;;;;;;;22.49;31.21;95830.16;5103775;28;20198;-72
2022/10/21 11:47:37;;;;;;;0.30;0.30;;;;;;;23.17;30.03;95836.88;5088977;28;20963;-72
2022/10/21 11:50:25;;;;;;;2.17;1.97;;;;;;;22.80;30.19;95828.28;5086208;28;20520;-72
2022/10/21 11:53:13;;;;;;;1.40;1.30;;;;;;;23.04;30.15;95822.53;5097714;28;20187;-71
2022/10/21 11:55:52;;;;;;;0.80;0.80;;;;;;;23.89;28.88;95805.75;5103628;27;20463;-73